Alleghany, Virginia
Current Conditions -  °F | °C
As of 4:35 AM on Saturday 29 Nov 2014 (Local Time) from KHSP Reporting Station
Broken Clouds Broken Clouds  
Wind Chill: 20°   Ceiling: 11000
Heat Index: 30°   Visibility: 10mi
Dew Point: 16°   Wind: 13mph
Humidity: 55%   Direction: 250°WSW
Pressure: 30.08"   Gusts: NA
Location:  37.7731°N, 80.0632°W
Report Text: KHSP 290935Z AUTO 25011KT 10SM BKN110 M01/M09 A3008 RMK AO2 T10091089
Loading
Personal Weather Stations






























Interactive Weather Map New forecast layout! Learn more

10-Day Weather Forecast

Advertisements
Track Severe Weather on mobile